EPMO

Modlin Airport

Warsaw, Poland
METAR EPMO 222030Z 30007KT 8000 NSC 07/07 Q1022
Observed Flight Rules
Oct-22 @ 20:30 UTC (18 minutes ago) Marginal Visual Flight Rules
Wind Visibility Clouds
300° at 7 knots 7,998 meters
  • Clear skies
Temperatures Readings
Current 7°C / 45°F
Dewpoint 7°C / 45°F
Humidity 100%
Altimeter 30.18" Hg
Pressure 1022 hPa
Elevation 104
METAR EPMO 222030Z 30007KT 8000 NSC 07/07 Q1022
Observed Flight Rules
Oct-22 @ 20:30 UTC
(18 minutes ago)
MVFR
Wind Visibility
300° at 7 knots 7,998 meters
Clouds
  • Clear skies
Temperature Dewpoint
7°C / 45°F 7°C / 45°F
Humidity Altimeter Pressure
100% 30.18" Hg 1022 hPa